sensor_id;sensor_type;location;lat;lon;timestamp;P1;durP1;ratioP1;P2;durP2;ratioP2
40052;SDS011;25758;48.200;16.338;2023-12-04T00:01:15;13.83;;;8.17;;
40052;SDS011;25758;48.200;16.338;2023-12-04T00:03:41;14.77;;;7.73;;
40052;SDS011;25758;48.200;16.338;2023-12-04T00:06:07;15.53;;;7.27;;
40052;SDS011;25758;48.200;16.338;2023-12-04T00:08:35;13.93;;;7.63;;
40052;SDS011;25758;48.200;16.338;2023-12-04T00:11:01;14.50;;;7.53;;
40052;SDS011;25758;48.200;16.338;2023-12-04T00:13:27;12.43;;;7.10;;
40052;SDS011;25758;48.200;16.338;2023-12-04T00:15:53;13.50;;;6.93;;
40052;SDS011;25758;48.200;16.338;2023-12-04T00:18:18;14.23;;;7.23;;
40052;SDS011;25758;48.200;16.338;2023-12-04T00:20:44;14.17;;;7.63;;
40052;SDS011;25758;48.200;16.338;2023-12-04T00:23:09;15.60;;;8.73;;
40052;SDS011;25758;48.200;16.338;2023-12-04T00:25:35;15.87;;;8.07;;
40052;SDS011;25758;48.200;16.338;2023-12-04T00:28:00;14.27;;;7.20;;
40052;SDS011;25758;48.200;16.338;2023-12-04T00:30:26;17.23;;;9.27;;
40052;SDS011;25758;48.200;16.338;2023-12-04T00:32:52;15.60;;;8.83;;
40052;SDS011;25758;48.200;16.338;2023-12-04T00:35:17;16.63;;;8.70;;
40052;SDS011;25758;48.200;16.338;2023-12-04T00:37:43;15.30;;;8.50;;
40052;SDS011;25758;48.200;16.338;2023-12-04T00:40:08;15.77;;;9.13;;
40052;SDS011;25758;48.200;16.338;2023-12-04T00:42:34;18.37;;;9.63;;
40052;SDS011;25758;48.200;16.338;2023-12-04T00:45:01;17.80;;;9.30;;
40052;SDS011;25758;48.200;16.338;2023-12-04T00:47:27;20.37;;;10.03;;
40052;SDS011;25758;48.200;16.338;2023-12-04T00:49:53;21.23;;;10.23;;
40052;SDS011;25758;48.200;16.338;2023-12-04T00:52:18;16.67;;;9.50;;
40052;SDS011;25758;48.200;16.338;2023-12-04T00:54:44;16.47;;;8.67;;
40052;SDS011;25758;48.200;16.338;2023-12-04T00:57:10;17.47;;;10.27;;
40052;SDS011;25758;48.200;16.338;2023-12-04T00:59:35;17.00;;;8.80;;
40052;SDS011;25758;48.200;16.338;2023-12-04T01:02:01;18.87;;;10.10;;
40052;SDS011;25758;48.200;16.338;2023-12-04T01:04:26;21.43;;;9.47;;
40052;SDS011;25758;48.200;16.338;2023-12-04T01:06:52;17.17;;;9.80;;
40052;SDS011;25758;48.200;16.338;2023-12-04T01:09:18;18.77;;;10.33;;
40052;SDS011;25758;48.200;16.338;2023-12-04T01:11:49;19.20;;;10.63;;
40052;SDS011;25758;48.200;16.338;2023-12-04T01:14:18;18.80;;;9.23;;
40052;SDS011;25758;48.200;16.338;2023-12-04T01:16:44;20.33;;;10.37;;
40052;SDS011;25758;48.200;16.338;2023-12-04T01:19:10;18.40;;;9.90;;
40052;SDS011;25758;48.200;16.338;2023-12-04T01:21:36;19.80;;;9.27;;
40052;SDS011;25758;48.200;16.338;2023-12-04T01:24:01;17.37;;;9.03;;
40052;SDS011;25758;48.200;16.338;2023-12-04T01:26:27;18.20;;;10.23;;
40052;SDS011;25758;48.200;16.338;2023-12-04T01:28:52;21.00;;;10.27;;
40052;SDS011;25758;48.200;16.338;2023-12-04T01:31:18;17.80;;;8.53;;
40052;SDS011;25758;48.200;16.338;2023-12-04T01:33:43;16.80;;;8.87;;
40052;SDS011;25758;48.200;16.338;2023-12-04T01:36:09;17.10;;;7.90;;
40052;SDS011;25758;48.200;16.338;2023-12-04T01:38:36;12.37;;;7.03;;
40052;SDS011;25758;48.200;16.338;2023-12-04T01:41:02;15.63;;;8.73;;
40052;SDS011;25758;48.200;16.338;2023-12-04T01:43:28;12.63;;;7.57;;
40052;SDS011;25758;48.200;16.338;2023-12-04T01:45:53;14.87;;;7.63;;
40052;SDS011;25758;48.200;16.338;2023-12-04T01:48:19;13.77;;;6.90;;
40052;SDS011;25758;48.200;16.338;2023-12-04T01:50:45;12.97;;;7.00;;
40052;SDS011;25758;48.200;16.338;2023-12-04T01:53:11;11.97;;;7.30;;
40052;SDS011;25758;48.200;16.338;2023-12-04T01:55:37;11.77;;;7.23;;
40052;SDS011;25758;48.200;16.338;2023-12-04T01:58:03;12.80;;;6.90;;
40052;SDS011;25758;48.200;16.338;2023-12-04T02:00:30;12.10;;;6.27;;
40052;SDS011;25758;48.200;16.338;2023-12-04T02:02:56;12.10;;;6.53;;
40052;SDS011;25758;48.200;16.338;2023-12-04T02:05:23;12.33;;;7.20;;
40052;SDS011;25758;48.200;16.338;2023-12-04T02:07:49;15.03;;;7.90;;
40052;SDS011;25758;48.200;16.338;2023-12-04T02:10:15;14.63;;;7.73;;
40052;SDS011;25758;48.200;16.338;2023-12-04T02:12:41;10.50;;;6.23;;
40052;SDS011;25758;48.200;16.338;2023-12-04T02:15:06;12.83;;;6.97;;
40052;SDS011;25758;48.200;16.338;2023-12-04T02:17:34;11.70;;;6.67;;
40052;SDS011;25758;48.200;16.338;2023-12-04T02:20:00;13.70;;;7.60;;
40052;SDS011;25758;48.200;16.338;2023-12-04T02:22:26;12.13;;;7.13;;
40052;SDS011;25758;48.200;16.338;2023-12-04T02:24:52;11.30;;;6.77;;
40052;SDS011;25758;48.200;16.338;2023-12-04T02:27:19;11.17;;;7.40;;
40052;SDS011;25758;48.200;16.338;2023-12-04T02:29:52;13.80;;;6.67;;
40052;SDS011;25758;48.200;16.338;2023-12-04T02:32:21;18.70;;;8.18;;
40052;SDS011;25758;48.200;16.338;2023-12-04T02:34:49;12.67;;;6.70;;
40052;SDS011;25758;48.200;16.338;2023-12-04T02:37:17;13.47;;;6.50;;
40052;SDS011;25758;48.200;16.338;2023-12-04T02:39:44;11.93;;;6.63;;
40052;SDS011;25758;48.200;16.338;2023-12-04T02:42:10;11.70;;;6.17;;
40052;SDS011;25758;48.200;16.338;2023-12-04T02:44:38;9.47;;;5.67;;
40052;SDS011;25758;48.200;16.338;2023-12-04T02:47:04;11.30;;;6.10;;
40052;SDS011;25758;48.200;16.338;2023-12-04T02:49:30;10.93;;;5.80;;
40052;SDS011;25758;48.200;16.338;2023-12-04T02:51:55;10.60;;;6.60;;
40052;SDS011;25758;48.200;16.338;2023-12-04T02:54:22;12.53;;;5.73;;
40052;SDS011;25758;48.200;16.338;2023-12-04T02:56:48;12.10;;;5.93;;
40052;SDS011;25758;48.200;16.338;2023-12-04T02:59:13;11.23;;;6.27;;
40052;SDS011;25758;48.200;16.338;2023-12-04T03:01:39;11.97;;;6.43;;
40052;SDS011;25758;48.200;16.338;2023-12-04T03:04:05;19.23;;;7.93;;
40052;SDS011;25758;48.200;16.338;2023-12-04T03:06:30;14.80;;;8.03;;
40052;SDS011;25758;48.200;16.338;2023-12-04T03:08:56;15.13;;;8.30;;
40052;SDS011;25758;48.200;16.338;2023-12-04T03:11:24;16.30;;;9.43;;
40052;SDS011;25758;48.200;16.338;2023-12-04T03:13:49;20.97;;;12.10;;
40052;SDS011;25758;48.200;16.338;2023-12-04T03:16:16;18.63;;;11.03;;
40052;SDS011;25758;48.200;16.338;2023-12-04T03:18:42;19.67;;;10.73;;
40052;SDS011;25758;48.200;16.338;2023-12-04T03:21:08;22.27;;;12.13;;
40052;SDS011;25758;48.200;16.338;2023-12-04T03:23:33;18.90;;;10.37;;
40052;SDS011;25758;48.200;16.338;2023-12-04T03:25:59;21.47;;;11.57;;
40052;SDS011;25758;48.200;16.338;2023-12-04T03:28:25;22.03;;;12.47;;
40052;SDS011;25758;48.200;16.338;2023-12-04T03:30:50;19.80;;;11.70;;
40052;SDS011;25758;48.200;16.338;2023-12-04T03:33:16;18.03;;;10.70;;
40052;SDS011;25758;48.200;16.338;2023-12-04T03:35:41;21.83;;;11.57;;
40052;SDS011;25758;48.200;16.338;2023-12-04T03:38:07;23.17;;;11.87;;
40052;SDS011;25758;48.200;16.338;2023-12-04T03:40:32;17.00;;;10.50;;
40052;SDS011;25758;48.200;16.338;2023-12-04T03:42:58;14.53;;;8.20;;
40052;SDS011;25758;48.200;16.338;2023-12-04T03:45:24;14.40;;;7.63;;
40052;SDS011;25758;48.200;16.338;2023-12-04T03:47:49;15.13;;;8.23;;
40052;SDS011;25758;48.200;16.338;2023-12-04T03:50:15;15.83;;;7.67;;
40052;SDS011;25758;48.200;16.338;2023-12-04T03:52:41;14.33;;;8.27;;
40052;SDS011;25758;48.200;16.338;2023-12-04T03:55:07;17.23;;;7.33;;
40052;SDS011;25758;48.200;16.338;2023-12-04T03:57:33;14.77;;;7.50;;
40052;SDS011;25758;48.200;16.338;2023-12-04T03:59:59;18.27;;;9.97;;
40052;SDS011;25758;48.200;16.338;2023-12-04T04:02:24;18.73;;;10.80;;
40052;SDS011;25758;48.200;16.338;2023-12-04T04:04:50;19.40;;;11.17;;
40052;SDS011;25758;48.200;16.338;2023-12-04T04:07:16;25.23;;;11.37;;
40052;SDS011;25758;48.200;16.338;2023-12-04T04:09:42;21.37;;;11.93;;
40052;SDS011;25758;48.200;16.338;2023-12-04T04:12:08;23.70;;;12.33;;
40052;SDS011;25758;48.200;16.338;2023-12-04T04:14:34;23.43;;;12.93;;
40052;SDS011;25758;48.200;16.338;2023-12-04T04:16:59;24.60;;;13.13;;
40052;SDS011;25758;48.200;16.338;2023-12-04T04:19:25;16.50;;;8.50;;
40052;SDS011;25758;48.200;16.338;2023-12-04T04:21:51;15.33;;;6.47;;
40052;SDS011;25758;48.200;16.338;2023-12-04T04:24:16;13.23;;;7.40;;
40052;SDS011;25758;48.200;16.338;2023-12-04T04:26:42;13.63;;;6.47;;
40052;SDS011;25758;48.200;16.338;2023-12-04T04:29:07;13.20;;;6.60;;
40052;SDS011;25758;48.200;16.338;2023-12-04T04:31:34;13.10;;;7.17;;
40052;SDS011;25758;48.200;16.338;2023-12-04T04:34:00;13.00;;;7.00;;
40052;SDS011;25758;48.200;16.338;2023-12-04T04:36:26;11.77;;;6.50;;
40052;SDS011;25758;48.200;16.338;2023-12-04T04:38:51;13.03;;;7.13;;
40052;SDS011;25758;48.200;16.338;2023-12-04T04:41:17;14.67;;;7.87;;
40052;SDS011;25758;48.200;16.338;2023-12-04T04:43:42;15.80;;;7.77;;
40052;SDS011;25758;48.200;16.338;2023-12-04T04:46:08;16.70;;;8.53;;
40052;SDS011;25758;48.200;16.338;2023-12-04T04:48:34;18.73;;;8.80;;
40052;SDS011;25758;48.200;16.338;2023-12-04T04:51:00;15.83;;;8.77;;
40052;SDS011;25758;48.200;16.338;2023-12-04T04:53:26;22.70;;;10.00;;
40052;SDS011;25758;48.200;16.338;2023-12-04T04:55:51;21.77;;;11.93;;
40052;SDS011;25758;48.200;16.338;2023-12-04T04:58:17;15.23;;;9.20;;
40052;SDS011;25758;48.200;16.338;2023-12-04T05:00:43;26.13;;;10.33;;
40052;SDS011;25758;48.200;16.338;2023-12-04T05:03:10;17.60;;;9.20;;
40052;SDS011;25758;48.200;16.338;2023-12-04T05:05:35;15.87;;;7.83;;
40052;SDS011;25758;48.200;16.338;2023-12-04T05:08:01;19.00;;;9.13;;
40052;SDS011;25758;48.200;16.338;2023-12-04T05:10:26;15.37;;;8.50;;
40052;SDS011;25758;48.200;16.338;2023-12-04T05:12:52;15.17;;;8.17;;
40052;SDS011;25758;48.200;16.338;2023-12-04T05:15:18;13.97;;;7.73;;
40052;SDS011;25758;48.200;16.338;2023-12-04T05:17:43;15.63;;;8.50;;
40052;SDS011;25758;48.200;16.338;2023-12-04T05:20:09;13.97;;;7.57;;
40052;SDS011;25758;48.200;16.338;2023-12-04T05:22:35;17.07;;;7.63;;
40052;SDS011;25758;48.200;16.338;2023-12-04T05:25:00;22.20;;;8.50;;
40052;SDS011;25758;48.200;16.338;2023-12-04T05:27:26;17.23;;;7.77;;
40052;SDS011;25758;48.200;16.338;2023-12-04T05:29:52;21.40;;;8.63;;
40052;SDS011;25758;48.200;16.338;2023-12-04T05:32:17;15.67;;;7.50;;
40052;SDS011;25758;48.200;16.338;2023-12-04T05:34:51;15.10;;;7.17;;
40052;SDS011;25758;48.200;16.338;2023-12-04T05:37:16;16.52;;;7.47;;
40052;SDS011;25758;48.200;16.338;2023-12-04T05:39:42;15.17;;;7.57;;
40052;SDS011;25758;48.200;16.338;2023-12-04T05:42:07;17.73;;;8.03;;
40052;SDS011;25758;48.200;16.338;2023-12-04T05:44:33;16.00;;;8.27;;
40052;SDS011;25758;48.200;16.338;2023-12-04T05:47:00;18.27;;;8.37;;
40052;SDS011;25758;48.200;16.338;2023-12-04T05:49:25;16.43;;;8.33;;
40052;SDS011;25758;48.200;16.338;2023-12-04T05:51:51;14.77;;;7.50;;
40052;SDS011;25758;48.200;16.338;2023-12-04T05:54:16;14.40;;;7.20;;
40052;SDS011;25758;48.200;16.338;2023-12-04T05:56:42;17.83;;;8.90;;
40052;SDS011;25758;48.200;16.338;2023-12-04T05:59:08;18.67;;;9.47;;
40052;SDS011;25758;48.200;16.338;2023-12-04T06:01:33;17.50;;;8.57;;
40052;SDS011;25758;48.200;16.338;2023-12-04T06:03:59;19.40;;;8.90;;
40052;SDS011;25758;48.200;16.338;2023-12-04T06:06:25;13.17;;;7.77;;
40052;SDS011;25758;48.200;16.338;2023-12-04T06:08:52;14.07;;;7.97;;
40052;SDS011;25758;48.200;16.338;2023-12-04T06:11:17;17.27;;;8.93;;
40052;SDS011;25758;48.200;16.338;2023-12-04T06:13:43;18.97;;;9.97;;
40052;SDS011;25758;48.200;16.338;2023-12-04T06:16:08;20.33;;;9.17;;
40052;SDS011;25758;48.200;16.338;2023-12-04T06:18:34;19.30;;;10.13;;
40052;SDS011;25758;48.200;16.338;2023-12-04T06:21:00;21.23;;;11.17;;
40052;SDS011;25758;48.200;16.338;2023-12-04T06:23:26;24.13;;;11.73;;
40052;SDS011;25758;48.200;16.338;2023-12-04T06:25:51;19.67;;;9.90;;
40052;SDS011;25758;48.200;16.338;2023-12-04T06:28:17;18.47;;;8.30;;
40052;SDS011;25758;48.200;16.338;2023-12-04T06:30:43;16.47;;;8.27;;
40052;SDS011;25758;48.200;16.338;2023-12-04T06:33:09;16.10;;;8.50;;
40052;SDS011;25758;48.200;16.338;2023-12-04T06:35:35;21.03;;;8.63;;
40052;SDS011;25758;48.200;16.338;2023-12-04T06:38:03;18.10;;;8.70;;
40052;SDS011;25758;48.200;16.338;2023-12-04T06:40:32;19.03;;;8.83;;
40052;SDS011;25758;48.200;16.338;2023-12-04T06:42:58;20.70;;;9.60;;
40052;SDS011;25758;48.200;16.338;2023-12-04T06:45:24;24.77;;;8.63;;
40052;SDS011;25758;48.200;16.338;2023-12-04T06:47:50;17.30;;;9.23;;
40052;SDS011;25758;48.200;16.338;2023-12-04T06:50:16;16.37;;;8.33;;
40052;SDS011;25758;48.200;16.338;2023-12-04T06:52:42;18.77;;;9.07;;
40052;SDS011;25758;48.200;16.338;2023-12-04T06:55:07;16.90;;;8.77;;
40052;SDS011;25758;48.200;16.338;2023-12-04T06:57:33;16.43;;;8.30;;
40052;SDS011;25758;48.200;16.338;2023-12-04T06:59:59;18.73;;;8.93;;
40052;SDS011;25758;48.200;16.338;2023-12-04T07:02:25;13.43;;;8.37;;
40052;SDS011;25758;48.200;16.338;2023-12-04T07:04:51;12.87;;;7.13;;
40052;SDS011;25758;48.200;16.338;2023-12-04T07:07:16;19.27;;;9.03;;
40052;SDS011;25758;48.200;16.338;2023-12-04T07:09:42;21.53;;;8.37;;
40052;SDS011;25758;48.200;16.338;2023-12-04T07:12:08;15.97;;;8.80;;
40052;SDS011;25758;48.200;16.338;2023-12-04T07:14:33;13.10;;;7.43;;
40052;SDS011;25758;48.200;16.338;2023-12-04T07:16:59;16.83;;;9.50;;
40052;SDS011;25758;48.200;16.338;2023-12-04T07:19:25;14.17;;;7.83;;
40052;SDS011;25758;48.200;16.338;2023-12-04T07:21:52;18.97;;;8.37;;
40052;SDS011;25758;48.200;16.338;2023-12-04T07:24:17;18.03;;;9.17;;
40052;SDS011;25758;48.200;16.338;2023-12-04T07:26:43;18.27;;;8.17;;
40052;SDS011;25758;48.200;16.338;2023-12-04T07:29:09;16.73;;;7.80;;
40052;SDS011;25758;48.200;16.338;2023-12-04T07:31:35;19.03;;;9.53;;
40052;SDS011;25758;48.200;16.338;2023-12-04T07:34:01;20.47;;;9.80;;
40052;SDS011;25758;48.200;16.338;2023-12-04T07:36:27;16.63;;;9.00;;
40052;SDS011;25758;48.200;16.338;2023-12-04T07:38:53;16.93;;;9.80;;
40052;SDS011;25758;48.200;16.338;2023-12-04T07:41:19;19.93;;;10.13;;
40052;SDS011;25758;48.200;16.338;2023-12-04T07:43:45;19.33;;;8.60;;
40052;SDS011;25758;48.200;16.338;2023-12-04T07:46:10;18.23;;;9.57;;
40052;SDS011;25758;48.200;16.338;2023-12-04T07:48:37;16.93;;;9.07;;
40052;SDS011;25758;48.200;16.338;2023-12-04T07:51:03;15.00;;;8.47;;
40052;SDS011;25758;48.200;16.338;2023-12-04T07:53:29;20.63;;;9.23;;
40052;SDS011;25758;48.200;16.338;2023-12-04T07:55:54;20.40;;;9.53;;
40052;SDS011;25758;48.200;16.338;2023-12-04T07:58:20;18.90;;;8.70;;
40052;SDS011;25758;48.200;16.338;2023-12-04T08:00:46;20.73;;;9.07;;
40052;SDS011;25758;48.200;16.338;2023-12-04T08:03:12;19.60;;;10.10;;
40052;SDS011;25758;48.200;16.338;2023-12-04T08:05:38;18.37;;;9.00;;
40052;SDS011;25758;48.200;16.338;2023-12-04T08:08:03;21.00;;;10.43;;
40052;SDS011;25758;48.200;16.338;2023-12-04T08:10:30;16.83;;;9.17;;
40052;SDS011;25758;48.200;16.338;2023-12-04T08:12:56;16.57;;;9.03;;
40052;SDS011;25758;48.200;16.338;2023-12-04T08:15:22;21.53;;;10.43;;
40052;SDS011;25758;48.200;16.338;2023-12-04T08:17:47;18.67;;;8.80;;
40052;SDS011;25758;48.200;16.338;2023-12-04T08:20:13;17.17;;;9.47;;
40052;SDS011;25758;48.200;16.338;2023-12-04T08:22:40;19.07;;;10.53;;
40052;SDS011;25758;48.200;16.338;2023-12-04T08:25:06;19.80;;;10.67;;
40052;SDS011;25758;48.200;16.338;2023-12-04T08:27:32;17.27;;;9.83;;
40052;SDS011;25758;48.200;16.338;2023-12-04T08:29:58;18.17;;;9.27;;
40052;SDS011;25758;48.200;16.338;2023-12-04T08:32:24;17.00;;;9.60;;
40052;SDS011;25758;48.200;16.338;2023-12-04T08:34:51;19.20;;;10.67;;
40052;SDS011;25758;48.200;16.338;2023-12-04T08:37:17;20.60;;;9.60;;
40052;SDS011;25758;48.200;16.338;2023-12-04T08:39:43;17.13;;;10.00;;
40052;SDS011;25758;48.200;16.338;2023-12-04T08:42:09;21.40;;;10.27;;
40052;SDS011;25758;48.200;16.338;2023-12-04T08:44:35;19.47;;;10.50;;
40052;SDS011;25758;48.200;16.338;2023-12-04T08:47:01;18.57;;;10.33;;
40052;SDS011;25758;48.200;16.338;2023-12-04T08:49:27;16.37;;;9.50;;
40052;SDS011;25758;48.200;16.338;2023-12-04T08:51:52;19.40;;;10.37;;
40052;SDS011;25758;48.200;16.338;2023-12-04T08:54:18;19.03;;;10.33;;
40052;SDS011;25758;48.200;16.338;2023-12-04T08:56:43;18.77;;;8.67;;
40052;SDS011;25758;48.200;16.338;2023-12-04T08:59:09;16.63;;;9.17;;
40052;SDS011;25758;48.200;16.338;2023-12-04T09:01:35;21.00;;;10.83;;
40052;SDS011;25758;48.200;16.338;2023-12-04T09:04:01;23.30;;;10.17;;
40052;SDS011;25758;48.200;16.338;2023-12-04T09:06:27;18.90;;;10.40;;
40052;SDS011;25758;48.200;16.338;2023-12-04T09:08:52;22.10;;;9.80;;
40052;SDS011;25758;48.200;16.338;2023-12-04T09:11:18;20.90;;;10.93;;
40052;SDS011;25758;48.200;16.338;2023-12-04T09:13:44;18.20;;;10.17;;
40052;SDS011;25758;48.200;16.338;2023-12-04T09:16:10;17.33;;;10.47;;
40052;SDS011;25758;48.200;16.338;2023-12-04T09:18:36;18.57;;;9.73;;
40052;SDS011;25758;48.200;16.338;2023-12-04T09:21:01;20.80;;;10.70;;
40052;SDS011;25758;48.200;16.338;2023-12-04T09:23:27;34.07;;;18.10;;
40052;SDS011;25758;48.200;16.338;2023-12-04T09:25:53;35.87;;;15.13;;
40052;SDS011;25758;48.200;16.338;2023-12-04T09:28:18;31.40;;;14.70;;
40052;SDS011;25758;48.200;16.338;2023-12-04T09:30:44;21.93;;;11.97;;
40052;SDS011;25758;48.200;16.338;2023-12-04T09:33:10;17.43;;;9.63;;
40052;SDS011;25758;48.200;16.338;2023-12-04T09:35:35;17.60;;;10.40;;
40052;SDS011;25758;48.200;16.338;2023-12-04T09:38:01;17.87;;;9.70;;
40052;SDS011;25758;48.200;16.338;2023-12-04T09:40:27;16.40;;;9.40;;
40052;SDS011;25758;48.200;16.338;2023-12-04T09:42:52;25.93;;;10.60;;
40052;SDS011;25758;48.200;16.338;2023-12-04T09:45:18;20.00;;;10.50;;
40052;SDS011;25758;48.200;16.338;2023-12-04T09:47:45;18.63;;;10.60;;
40052;SDS011;25758;48.200;16.338;2023-12-04T09:50:13;19.53;;;9.80;;
40052;SDS011;25758;48.200;16.338;2023-12-04T09:52:41;16.30;;;9.00;;
40052;SDS011;25758;48.200;16.338;2023-12-04T09:55:07;16.93;;;9.03;;
40052;SDS011;25758;48.200;16.338;2023-12-04T09:57:33;15.60;;;8.40;;
40052;SDS011;25758;48.200;16.338;2023-12-04T10:00:00;19.33;;;10.77;;
40052;SDS011;25758;48.200;16.338;2023-12-04T10:02:27;15.67;;;9.27;;
40052;SDS011;25758;48.200;16.338;2023-12-04T10:04:53;17.57;;;9.67;;
40052;SDS011;25758;48.200;16.338;2023-12-04T10:07:19;17.43;;;9.67;;
40052;SDS011;25758;48.200;16.338;2023-12-04T10:09:44;20.87;;;9.33;;
40052;SDS011;25758;48.200;16.338;2023-12-04T10:12:10;17.53;;;9.47;;
40052;SDS011;25758;48.200;16.338;2023-12-04T10:14:36;13.33;;;8.33;;
40052;SDS011;25758;48.200;16.338;2023-12-04T10:17:23;15.17;;;9.03;;
40052;SDS011;25758;48.200;16.338;2023-12-04T10:19:48;18.67;;;10.03;;
40052;SDS011;25758;48.200;16.338;2023-12-04T10:22:35;17.83;;;9.30;;
40052;SDS011;25758;48.200;16.338;2023-12-04T10:25:12;18.23;;;10.03;;
40052;SDS011;25758;48.200;16.338;2023-12-04T10:27:40;20.90;;;10.30;;
40052;SDS011;25758;48.200;16.338;2023-12-04T10:30:06;37.83;;;19.57;;
40052;SDS011;25758;48.200;16.338;2023-12-04T10:32:35;61.07;;;24.97;;
40052;SDS011;25758;48.200;16.338;2023-12-04T10:35:05;43.13;;;20.87;;
40052;SDS011;25758;48.200;16.338;2023-12-04T10:37:36;36.57;;;17.83;;
40052;SDS011;25758;48.200;16.338;2023-12-04T10:40:02;20.40;;;9.97;;
40052;SDS011;25758;48.200;16.338;2023-12-04T10:42:29;15.00;;;8.03;;
40052;SDS011;25758;48.200;16.338;2023-12-04T10:44:58;17.40;;;8.73;;
40052;SDS011;25758;48.200;16.338;2023-12-04T10:47:24;16.47;;;9.40;;
40052;SDS011;25758;48.200;16.338;2023-12-04T10:49:51;14.87;;;8.70;;
40052;SDS011;25758;48.200;16.338;2023-12-04T10:52:17;18.90;;;9.60;;
40052;SDS011;25758;48.200;16.338;2023-12-04T10:54:44;15.90;;;8.67;;
40052;SDS011;25758;48.200;16.338;2023-12-04T10:57:11;14.50;;;7.80;;
40052;SDS011;25758;48.200;16.338;2023-12-04T10:59:41;19.47;;;10.10;;
40052;SDS011;25758;48.200;16.338;2023-12-04T11:02:07;16.33;;;8.07;;
40052;SDS011;25758;48.200;16.338;2023-12-04T11:04:45;13.83;;;8.43;;
40052;SDS011;25758;48.200;16.338;2023-12-04T11:07:12;15.13;;;8.67;;
40052;SDS011;25758;48.200;16.338;2023-12-04T11:09:38;23.07;;;9.80;;
40052;SDS011;25758;48.200;16.338;2023-12-04T11:12:06;16.80;;;8.70;;
40052;SDS011;25758;48.200;16.338;2023-12-04T11:14:42;15.17;;;8.70;;
40052;SDS011;25758;48.200;16.338;2023-12-04T11:17:12;15.93;;;8.40;;
40052;SDS011;25758;48.200;16.338;2023-12-04T11:19:43;14.87;;;8.47;;
40052;SDS011;25758;48.200;16.338;2023-12-04T11:22:20;13.63;;;7.57;;
40052;SDS011;25758;48.200;16.338;2023-12-04T11:24:47;12.17;;;7.40;;
40052;SDS011;25758;48.200;16.338;2023-12-04T11:27:18;13.60;;;8.00;;
40052;SDS011;25758;48.200;16.338;2023-12-04T11:29:45;16.10;;;8.20;;
40052;SDS011;25758;48.200;16.338;2023-12-04T11:32:16;15.00;;;7.88;;
40052;SDS011;25758;48.200;16.338;2023-12-04T11:34:54;14.70;;;8.25;;
40052;SDS011;25758;48.200;16.338;2023-12-04T11:37:21;13.93;;;7.97;;
40052;SDS011;25758;48.200;16.338;2023-12-04T11:39:49;16.35;;;8.05;;
40052;SDS011;25758;48.200;16.338;2023-12-04T11:42:19;15.90;;;8.00;;
40052;SDS011;25758;48.200;16.338;2023-12-04T11:44:48;11.65;;;7.35;;
40052;SDS011;25758;48.200;16.338;2023-12-04T11:47:15;9.45;;;5.75;;
40052;SDS011;25758;48.200;16.338;2023-12-04T11:49:41;24.80;;;7.43;;
40052;SDS011;25758;48.200;16.338;2023-12-04T11:52:06;12.57;;;6.73;;
40052;SDS011;25758;48.200;16.338;2023-12-04T11:55:18;15.37;;;7.07;;
40052;SDS011;25758;48.200;16.338;2023-12-04T11:57:26;10.40;;;6.87;;
40052;SDS011;25758;48.200;16.338;2023-12-04T12:05:19;13.15;;;4.57;;
40052;SDS011;25758;48.200;16.338;2023-12-04T12:07:45;8.57;;;4.27;;
40052;SDS011;25758;48.200;16.338;2023-12-04T12:10:11;7.47;;;4.60;;
40052;SDS011;25758;48.200;16.338;2023-12-04T12:12:39;8.20;;;4.77;;
40052;SDS011;25758;48.200;16.338;2023-12-04T12:15:08;7.17;;;4.47;;
40052;SDS011;25758;48.200;16.338;2023-12-04T12:17:34;8.07;;;5.10;;
40052;SDS011;25758;48.200;16.338;2023-12-04T12:20:02;11.43;;;4.50;;
40052;SDS011;25758;48.200;16.338;2023-12-04T12:22:31;7.97;;;4.30;;
40052;SDS011;25758;48.200;16.338;2023-12-04T12:24:58;10.10;;;4.83;;
40052;SDS011;25758;48.200;16.338;2023-12-04T12:27:24;10.17;;;5.40;;
40052;SDS011;25758;48.200;16.338;2023-12-04T12:29:50;9.87;;;5.23;;
40052;SDS011;25758;48.200;16.338;2023-12-04T12:32:16;16.52;;;9.20;;
40052;SDS011;25758;48.200;16.338;2023-12-04T12:34:41;32.43;;;9.80;;
40052;SDS011;25758;48.200;16.338;2023-12-04T12:37:08;12.00;;;7.00;;
40052;SDS011;25758;48.200;16.338;2023-12-04T12:39:34;18.20;;;6.23;;
40052;SDS011;25758;48.200;16.338;2023-12-04T12:42:00;18.57;;;7.17;;
40052;SDS011;25758;48.200;16.338;2023-12-04T12:44:29;14.60;;;8.00;;
40052;SDS011;25758;48.200;16.338;2023-12-04T12:47:08;18.47;;;7.90;;
40052;SDS011;25758;48.200;16.338;2023-12-04T12:49:34;13.60;;;7.30;;
40052;SDS011;25758;48.200;16.338;2023-12-04T12:52:06;19.17;;;8.10;;
40052;SDS011;25758;48.200;16.338;2023-12-04T12:54:38;17.23;;;8.43;;
40052;SDS011;25758;48.200;16.338;2023-12-04T12:57:04;14.47;;;8.50;;
40052;SDS011;25758;48.200;16.338;2023-12-04T12:59:30;19.20;;;8.30;;
40052;SDS011;25758;48.200;16.338;2023-12-04T13:01:56;15.67;;;8.33;;
40052;SDS011;25758;48.200;16.338;2023-12-04T13:04:23;14.40;;;7.60;;
40052;SDS011;25758;48.200;16.338;2023-12-04T13:06:48;15.47;;;8.03;;
40052;SDS011;25758;48.200;16.338;2023-12-04T13:09:14;16.33;;;8.37;;
40052;SDS011;25758;48.200;16.338;2023-12-04T13:11:44;15.03;;;7.97;;
40052;SDS011;25758;48.200;16.338;2023-12-04T13:14:13;17.60;;;8.10;;
40052;SDS011;25758;48.200;16.338;2023-12-04T13:16:39;18.83;;;9.17;;
40052;SDS011;25758;48.200;16.338;2023-12-04T13:19:05;20.90;;;9.63;;
40052;SDS011;25758;48.200;16.338;2023-12-04T13:21:31;12.23;;;7.17;;
40052;SDS011;25758;48.200;16.338;2023-12-04T13:23:56;14.10;;;7.93;;
40052;SDS011;25758;48.200;16.338;2023-12-04T13:26:22;16.17;;;8.43;;
40052;SDS011;25758;48.200;16.338;2023-12-04T13:28:48;14.20;;;8.10;;
40052;SDS011;25758;48.200;16.338;2023-12-04T13:31:13;18.37;;;9.00;;
40052;SDS011;25758;48.200;16.338;2023-12-04T13:33:39;13.70;;;6.87;;
40052;SDS011;25758;48.200;16.338;2023-12-04T13:36:05;12.43;;;6.83;;
40052;SDS011;25758;48.200;16.338;2023-12-04T13:38:31;17.80;;;5.87;;
40052;SDS011;25758;48.200;16.338;2023-12-04T13:40:56;13.07;;;7.63;;
40052;SDS011;25758;48.200;16.338;2023-12-04T13:43:33;11.97;;;6.47;;
40052;SDS011;25758;48.200;16.338;2023-12-04T13:46:18;15.37;;;9.03;;
40052;SDS011;25758;48.200;16.338;2023-12-04T13:48:43;11.03;;;6.50;;
40052;SDS011;25758;48.200;16.338;2023-12-04T13:51:09;12.37;;;6.30;;
40052;SDS011;25758;48.200;16.338;2023-12-04T13:53:36;13.83;;;6.97;;
40052;SDS011;25758;48.200;16.338;2023-12-04T13:56:07;12.93;;;6.67;;
40052;SDS011;25758;48.200;16.338;2023-12-04T13:58:45;13.43;;;6.93;;
40052;SDS011;25758;48.200;16.338;2023-12-04T14:01:11;12.60;;;6.90;;
40052;SDS011;25758;48.200;16.338;2023-12-04T14:03:43;13.87;;;7.30;;
40052;SDS011;25758;48.200;16.338;2023-12-04T14:06:09;13.70;;;7.50;;
40052;SDS011;25758;48.200;16.338;2023-12-04T14:08:35;19.67;;;6.87;;
40052;SDS011;25758;48.200;16.338;2023-12-04T14:11:02;14.23;;;7.60;;
40052;SDS011;25758;48.200;16.338;2023-12-04T14:13:29;12.80;;;6.50;;
40052;SDS011;25758;48.200;16.338;2023-12-04T14:15:56;12.03;;;6.93;;
40052;SDS011;25758;48.200;16.338;2023-12-04T14:18:23;11.43;;;5.83;;
40052;SDS011;25758;48.200;16.338;2023-12-04T14:20:49;5.80;;;3.43;;